sensor_id;sensor_type;location;lat;lon;timestamp;pressure;altitude;pressure_sealevel;temperature;humidity
51195;BME280;37259;49.972;19.850;2023-02-12T00:00:41;99980;;;3.9;91.8
51195;BME280;37259;49.972;19.850;2023-02-12T00:01:41;99980;;;4;91.9
51195;BME280;37259;49.972;19.850;2023-02-12T00:02:41;99980;;;4;91.9
51195;BME280;37259;49.972;19.850;2023-02-12T00:03:41;99980;;;4;91.9
51195;BME280;37259;49.972;19.850;2023-02-12T00:04:41;99980;;;4;91.9
51195;BME280;37259;49.972;19.850;2023-02-12T00:05:41;99980;;;4;91.9
51195;BME280;37259;49.972;19.850;2023-02-12T00:06:41;99980;;;4;91.9
51195;BME280;37259;49.972;19.850;2023-02-12T00:07:41;99980;;;4;92
51195;BME280;37259;49.972;19.850;2023-02-12T00:08:41;99970;;;4;91.9
51195;BME280;37259;49.972;19.850;2023-02-12T00:09:41;99980;;;4;91.9
51195;BME280;37259;49.972;19.850;2023-02-12T00:10:41;99980;;;4;91.9
51195;BME280;37259;49.972;19.850;2023-02-12T00:11:41;99980;;;4;91.9
51195;BME280;37259;49.972;19.850;2023-02-12T00:12:41;99980;;;3.9;91.9
51195;BME280;37259;49.972;19.850;2023-02-12T00:13:41;99980;;;3.9;91.9
51195;BME280;37259;49.972;19.850;2023-02-12T00:14:41;99980;;;3.9;91.9
51195;BME280;37259;49.972;19.850;2023-02-12T00:15:41;99980;;;3.9;92
51195;BME280;37259;49.972;19.850;2023-02-12T00:16:41;99980;;;3.9;92
51195;BME280;37259;49.972;19.850;2023-02-12T00:17:41;99980;;;4;92
51195;BME280;37259;49.972;19.850;2023-02-12T00:18:41;99990;;;4;92
51195;BME280;37259;49.972;19.850;2023-02-12T00:19:41;99990;;;4;92
51195;BME280;37259;49.972;19.850;2023-02-12T00:20:41;99990;;;4;92
51195;BME280;37259;49.972;19.850;2023-02-12T00:21:41;99990;;;4;92
51195;BME280;37259;49.972;19.850;2023-02-12T00:22:41;99980;;;4;92.1
51195;BME280;37259;49.972;19.850;2023-02-12T00:23:41;99990;;;3.9;92.1
51195;BME280;37259;49.972;19.850;2023-02-12T00:24:41;99990;;;3.9;92.1
51195;BME280;37259;49.972;19.850;2023-02-12T00:25:41;99990;;;4;92.1
51195;BME280;37259;49.972;19.850;2023-02-12T00:26:41;100000;;;4;92.1
51195;BME280;37259;49.972;19.850;2023-02-12T00:27:41;100000;;;4;92.1
51195;BME280;37259;49.972;19.850;2023-02-12T00:28:41;99990;;;4;92
51195;BME280;37259;49.972;19.850;2023-02-12T00:29:41;100000;;;4;92
51195;BME280;37259;49.972;19.850;2023-02-12T00:30:41;99990;;;4;92
51195;BME280;37259;49.972;19.850;2023-02-12T00:31:41;99990;;;4;92
51195;BME280;37259;49.972;19.850;2023-02-12T00:32:41;99990;;;4;92
51195;BME280;37259;49.972;19.850;2023-02-12T00:33:41;99990;;;4;92
51195;BME280;37259;49.972;19.850;2023-02-12T00:34:41;99990;;;4;92
51195;BME280;37259;49.972;19.850;2023-02-12T00:35:41;99990;;;4;92
51195;BME280;37259;49.972;19.850;2023-02-12T00:36:41;99990;;;4;92
51195;BME280;37259;49.972;19.850;2023-02-12T00:37:41;99990;;;3.9;92
51195;BME280;37259;49.972;19.850;2023-02-12T00:38:41;99990;;;3.9;92
51195;BME280;37259;49.972;19.850;2023-02-12T00:39:41;99990;;;3.9;92.1
51195;BME280;37259;49.972;19.850;2023-02-12T00:40:41;99990;;;3.9;92.1
51195;BME280;37259;49.972;19.850;2023-02-12T00:41:41;99990;;;4;92.1
51195;BME280;37259;49.972;19.850;2023-02-12T00:42:41;99990;;;4;92.1
51195;BME280;37259;49.972;19.850;2023-02-12T00:43:41;99990;;;4;92.2
51195;BME280;37259;49.972;19.850;2023-02-12T00:44:41;100000;;;4;92.2
51195;BME280;37259;49.972;19.850;2023-02-12T00:45:41;100000;;;4;92.2
51195;BME280;37259;49.972;19.850;2023-02-12T00:46:41;99990;;;4;92.2
51195;BME280;37259;49.972;19.850;2023-02-12T00:47:41;99990;;;4;92.2
51195;BME280;37259;49.972;19.850;2023-02-12T00:48:41;99990;;;4;92.2
51195;BME280;37259;49.972;19.850;2023-02-12T00:49:41;99990;;;4;92.2
51195;BME280;37259;49.972;19.850;2023-02-12T00:50:43;99990;;;4;92.2
51195;BME280;37259;49.972;19.850;2023-02-12T00:51:41;99990;;;4;92.2
51195;BME280;37259;49.972;19.850;2023-02-12T00:52:41;99990;;;4;92.2
51195;BME280;37259;49.972;19.850;2023-02-12T00:53:41;99990;;;4;92.2
51195;BME280;37259;49.972;19.850;2023-02-12T00:54:41;100000;;;4;92.1
51195;BME280;37259;49.972;19.850;2023-02-12T00:55:41;99990;;;4;92.1
51195;BME280;37259;49.972;19.850;2023-02-12T00:56:41;99990;;;4;92.1
51195;BME280;37259;49.972;19.850;2023-02-12T00:57:41;99990;;;4;92.1
51195;BME280;37259;49.972;19.850;2023-02-12T00:58:41;99990;;;4;92.1
51195;BME280;37259;49.972;19.850;2023-02-12T00:59:41;100000;;;4;92.1
51195;BME280;37259;49.972;19.850;2023-02-12T01:00:41;100000;;;4;92.1
51195;BME280;37259;49.972;19.850;2023-02-12T01:01:41;100000;;;4;92.2
51195;BME280;37259;49.972;19.850;2023-02-12T01:02:41;100000;;;4;92.2
51195;BME280;37259;49.972;19.850;2023-02-12T01:03:41;100000;;;4.1;92.2
51195;BME280;37259;49.972;19.850;2023-02-12T01:04:41;100000;;;4.1;92.2
51195;BME280;37259;49.972;19.850;2023-02-12T01:05:41;100000;;;4.1;92.2
51195;BME280;37259;49.972;19.850;2023-02-12T01:06:41;100000;;;4.1;92.2
51195;BME280;37259;49.972;19.850;2023-02-12T01:07:41;100000;;;4.1;92.2
51195;BME280;37259;49.972;19.850;2023-02-12T01:08:41;100000;;;4.1;92.2
51195;BME280;37259;49.972;19.850;2023-02-12T01:09:41;100000;;;4.1;92.2
51195;BME280;37259;49.972;19.850;2023-02-12T01:10:41;100010;;;4.1;92.2
51195;BME280;37259;49.972;19.850;2023-02-12T01:11:41;100010;;;4.1;92.2
51195;BME280;37259;49.972;19.850;2023-02-12T01:12:41;100010;;;4.1;92.2
51195;BME280;37259;49.972;19.850;2023-02-12T01:13:41;100010;;;4.1;92.2
51195;BME280;37259;49.972;19.850;2023-02-12T01:14:41;100010;;;4.1;92.2
51195;BME280;37259;49.972;19.850;2023-02-12T01:15:41;100010;;;4.1;92.2
51195;BME280;37259;49.972;19.850;2023-02-12T01:16:41;100010;;;4.1;92.2
51195;BME280;37259;49.972;19.850;2023-02-12T01:17:41;100010;;;4.1;92.2
51195;BME280;37259;49.972;19.850;2023-02-12T01:18:41;100010;;;4.2;92.1
51195;BME280;37259;49.972;19.850;2023-02-12T01:19:41;100010;;;4.2;92.1
51195;BME280;37259;49.972;19.850;2023-02-12T01:20:41;100010;;;4.2;92.1
51195;BME280;37259;49.972;19.850;2023-02-12T01:21:41;100010;;;4.1;92.1
51195;BME280;37259;49.972;19.850;2023-02-12T01:22:41;100010;;;4.1;92.1
51195;BME280;37259;49.972;19.850;2023-02-12T01:23:41;100010;;;4.1;92.1
51195;BME280;37259;49.972;19.850;2023-02-12T01:24:41;100020;;;4.1;92.1
51195;BME280;37259;49.972;19.850;2023-02-12T01:25:41;100020;;;4.1;92.1
51195;BME280;37259;49.972;19.850;2023-02-12T01:26:41;100020;;;4.2;92.1
51195;BME280;37259;49.972;19.850;2023-02-12T01:27:41;100020;;;4.2;92.1
51195;BME280;37259;49.972;19.850;2023-02-12T01:28:41;100030;;;4.2;92
51195;BME280;37259;49.972;19.850;2023-02-12T01:29:41;100030;;;4.2;92
51195;BME280;37259;49.972;19.850;2023-02-12T01:30:41;100020;;;4.2;92
51195;BME280;37259;49.972;19.850;2023-02-12T01:31:41;100020;;;4.2;92
51195;BME280;37259;49.972;19.850;2023-02-12T01:32:41;100030;;;4.2;92
51195;BME280;37259;49.972;19.850;2023-02-12T01:33:41;100030;;;4.2;92
51195;BME280;37259;49.972;19.850;2023-02-12T01:34:41;100030;;;4.2;92
51195;BME280;37259;49.972;19.850;2023-02-12T01:35:41;100030;;;4.2;92
51195;BME280;37259;49.972;19.850;2023-02-12T01:36:41;100020;;;4.2;91.9
51195;BME280;37259;49.972;19.850;2023-02-12T01:37:41;100020;;;4.2;91.9
51195;BME280;37259;49.972;19.850;2023-02-12T01:38:41;100020;;;4.2;91.8
51195;BME280;37259;49.972;19.850;2023-02-12T01:39:41;100020;;;4.2;91.8
51195;BME280;37259;49.972;19.850;2023-02-12T01:40:41;100020;;;4.2;91.8
51195;BME280;37259;49.972;19.850;2023-02-12T01:41:41;100020;;;4.2;91.8
51195;BME280;37259;49.972;19.850;2023-02-12T01:42:41;100030;;;4.2;91.8
51195;BME280;37259;49.972;19.850;2023-02-12T01:43:41;100030;;;4.2;91.8
51195;BME280;37259;49.972;19.850;2023-02-12T01:44:42;100030;;;4.2;91.8
51195;BME280;37259;49.972;19.850;2023-02-12T01:45:46;100040;;;4.2;91.8
51195;BME280;37259;49.972;19.850;2023-02-12T01:46:41;100040;;;4.2;91.8
51195;BME280;37259;49.972;19.850;2023-02-12T01:47:41;100040;;;4.2;91.8
51195;BME280;37259;49.972;19.850;2023-02-12T01:48:41;100030;;;4.1;91.8
51195;BME280;37259;49.972;19.850;2023-02-12T01:49:41;100030;;;4.2;91.8
51195;BME280;37259;49.972;19.850;2023-02-12T01:50:41;100040;;;4.2;91.9
51195;BME280;37259;49.972;19.850;2023-02-12T01:51:41;100040;;;4.2;91.9
51195;BME280;37259;49.972;19.850;2023-02-12T01:52:42;100040;;;4.2;91.9
51195;BME280;37259;49.972;19.850;2023-02-12T01:53:41;100040;;;4.2;91.9
51195;BME280;37259;49.972;19.850;2023-02-12T01:54:41;100050;;;4.2;91.9
51195;BME280;37259;49.972;19.850;2023-02-12T01:55:41;100050;;;4.2;91.9
51195;BME280;37259;49.972;19.850;2023-02-12T01:56:41;100050;;;4.2;91.9
51195;BME280;37259;49.972;19.850;2023-02-12T01:57:42;100050;;;4.2;91.8
51195;BME280;37259;49.972;19.850;2023-02-12T01:58:41;100050;;;4.2;91.8
51195;BME280;37259;49.972;19.850;2023-02-12T01:59:41;100040;;;4.2;91.8
51195;BME280;37259;49.972;19.850;2023-02-12T02:00:41;100050;;;4.2;91.8
51195;BME280;37259;49.972;19.850;2023-02-12T02:01:41;100050;;;4.2;91.8
51195;BME280;37259;49.972;19.850;2023-02-12T02:02:41;100050;;;4.2;91.8
51195;BME280;37259;49.972;19.850;2023-02-12T02:03:41;100050;;;4.2;91.8
51195;BME280;37259;49.972;19.850;2023-02-12T02:04:42;100050;;;4.2;91.9
51195;BME280;37259;49.972;19.850;2023-02-12T02:05:42;100050;;;4.2;91.9
51195;BME280;37259;49.972;19.850;2023-02-12T02:06:43;100050;;;4.2;91.9
51195;BME280;37259;49.972;19.850;2023-02-12T02:07:41;100050;;;4.2;91.9
51195;BME280;37259;49.972;19.850;2023-02-12T02:08:41;100050;;;4.2;92
51195;BME280;37259;49.972;19.850;2023-02-12T02:10:41;100050;;;4.2;92.1
51195;BME280;37259;49.972;19.850;2023-02-12T02:11:41;100050;;;4.2;92.1
51195;BME280;37259;49.972;19.850;2023-02-12T02:12:41;100050;;;4.2;92
51195;BME280;37259;49.972;19.850;2023-02-12T02:13:41;100050;;;4.2;92
51195;BME280;37259;49.972;19.850;2023-02-12T02:14:41;100050;;;4.2;92
51195;BME280;37259;49.972;19.850;2023-02-12T02:15:41;100060;;;4.3;92
51195;BME280;37259;49.972;19.850;2023-02-12T02:16:42;100060;;;4.3;91.9
51195;BME280;37259;49.972;19.850;2023-02-12T02:17:44;100060;;;4.3;91.9
51195;BME280;37259;49.972;19.850;2023-02-12T02:18:42;100060;;;4.3;91.9
51195;BME280;37259;49.972;19.850;2023-02-12T02:19:46;100070;;;4.3;91.9
51195;BME280;37259;49.972;19.850;2023-02-12T02:20:46;100070;;;4.3;91.9
51195;BME280;37259;49.972;19.850;2023-02-12T02:21:44;100070;;;4.3;91.9
51195;BME280;37259;49.972;19.850;2023-02-12T02:22:41;100070;;;4.2;91.8
51195;BME280;37259;49.972;19.850;2023-02-12T02:23:46;100070;;;4.2;91.8
51195;BME280;37259;49.972;19.850;2023-02-12T02:24:46;100070;;;4.2;91.8
51195;BME280;37259;49.972;19.850;2023-02-12T02:25:46;100080;;;4.2;91.8
51195;BME280;37259;49.972;19.850;2023-02-12T02:27:41;100080;;;4.2;91.8
51195;BME280;37259;49.972;19.850;2023-02-12T02:27:46;100080;;;4.2;91.8
51195;BME280;37259;49.972;19.850;2023-02-12T02:28:47;100080;;;4.2;91.8
51195;BME280;37259;49.972;19.850;2023-02-12T02:29:45;100080;;;4.2;91.8
51195;BME280;37259;49.972;19.850;2023-02-12T02:30:42;100090;;;4.2;91.8
51195;BME280;37259;49.972;19.850;2023-02-12T02:31:41;100090;;;4.2;91.8
51195;BME280;37259;49.972;19.850;2023-02-12T02:32:42;100090;;;4.3;91.8
51195;BME280;37259;49.972;19.850;2023-02-12T02:33:42;100100;;;4.3;91.7
51195;BME280;37259;49.972;19.850;2023-02-12T02:34:42;100100;;;4.3;91.7
51195;BME280;37259;49.972;19.850;2023-02-12T02:35:42;100100;;;4.3;91.7
51195;BME280;37259;49.972;19.850;2023-02-12T02:36:42;100110;;;4.2;91.8
51195;BME280;37259;49.972;19.850;2023-02-12T02:37:43;100110;;;4.2;91.8
51195;BME280;37259;49.972;19.850;2023-02-12T02:38:41;100110;;;4.2;91.8
51195;BME280;37259;49.972;19.850;2023-02-12T02:39:42;100110;;;4.2;91.9
51195;BME280;37259;49.972;19.850;2023-02-12T02:40:42;100110;;;4.2;91.9
51195;BME280;37259;49.972;19.850;2023-02-12T02:41:42;100110;;;4.2;91.9
51195;BME280;37259;49.972;19.850;2023-02-12T02:42:42;100110;;;4.2;91.9
51195;BME280;37259;49.972;19.850;2023-02-12T02:43:41;100110;;;4.2;91.9
51195;BME280;37259;49.972;19.850;2023-02-12T02:44:41;100110;;;4.2;91.9
51195;BME280;37259;49.972;19.850;2023-02-12T02:45:41;100120;;;4.2;92
51195;BME280;37259;49.972;19.850;2023-02-12T02:46:41;100120;;;4.2;92
51195;BME280;37259;49.972;19.850;2023-02-12T02:47:42;100120;;;4.2;92
51195;BME280;37259;49.972;19.850;2023-02-12T02:48:41;100120;;;4.2;92
51195;BME280;37259;49.972;19.850;2023-02-12T02:49:41;100120;;;4.2;92
51195;BME280;37259;49.972;19.850;2023-02-12T02:50:41;100120;;;4.2;92
51195;BME280;37259;49.972;19.850;2023-02-12T02:51:42;100120;;;4.2;92
51195;BME280;37259;49.972;19.850;2023-02-12T02:52:42;100120;;;4.2;92
51195;BME280;37259;49.972;19.850;2023-02-12T02:53:41;100120;;;4.2;92
51195;BME280;37259;49.972;19.850;2023-02-12T02:54:41;100120;;;4.2;92
51195;BME280;37259;49.972;19.850;2023-02-12T02:55:42;100120;;;4.2;92
51195;BME280;37259;49.972;19.850;2023-02-12T02:56:41;100120;;;4.2;92
51195;BME280;37259;49.972;19.850;2023-02-12T02:57:41;100130;;;4.2;92
51195;BME280;37259;49.972;19.850;2023-02-12T02:58:41;100130;;;4.3;92
51195;BME280;37259;49.972;19.850;2023-02-12T02:59:41;100130;;;4.3;92
51195;BME280;37259;49.972;19.850;2023-02-12T03:00:41;100120;;;4.2;91.9
51195;BME280;37259;49.972;19.850;2023-02-12T03:01:41;100120;;;4.2;91.9
51195;BME280;37259;49.972;19.850;2023-02-12T03:02:41;100120;;;4.2;91.9
51195;BME280;37259;49.972;19.850;2023-02-12T03:03:41;100120;;;4.3;91.9
51195;BME280;37259;49.972;19.850;2023-02-12T03:04:41;100120;;;4.3;91.9
51195;BME280;37259;49.972;19.850;2023-02-12T03:05:42;100130;;;4.3;91.9
51195;BME280;37259;49.972;19.850;2023-02-12T03:06:42;100140;;;4.3;91.9
51195;BME280;37259;49.972;19.850;2023-02-12T03:07:42;100140;;;4.3;91.9
51195;BME280;37259;49.972;19.850;2023-02-12T03:08:41;100150;;;4.3;91.9
51195;BME280;37259;49.972;19.850;2023-02-12T03:09:42;100150;;;4.3;91.9
51195;BME280;37259;49.972;19.850;2023-02-12T03:10:41;100150;;;4.2;91.9
51195;BME280;37259;49.972;19.850;2023-02-12T03:11:41;100150;;;4.2;91.9
51195;BME280;37259;49.972;19.850;2023-02-12T03:12:42;100150;;;4.2;91.9
51195;BME280;37259;49.972;19.850;2023-02-12T03:13:41;100150;;;4.2;91.9
51195;BME280;37259;49.972;19.850;2023-02-12T03:14:41;100150;;;4.2;91.9
51195;BME280;37259;49.972;19.850;2023-02-12T03:15:42;100150;;;4.2;92
51195;BME280;37259;49.972;19.850;2023-02-12T03:16:42;100150;;;4.2;92
51195;BME280;37259;49.972;19.850;2023-02-12T03:17:41;100150;;;4.2;91.9
51195;BME280;37259;49.972;19.850;2023-02-12T03:18:41;100150;;;4.2;92
51195;BME280;37259;49.972;19.850;2023-02-12T03:19:41;100150;;;4.2;92
51195;BME280;37259;49.972;19.850;2023-02-12T03:20:42;100160;;;4.2;92
51195;BME280;37259;49.972;19.850;2023-02-12T03:21:42;100170;;;4.2;92
51195;BME280;37259;49.972;19.850;2023-02-12T03:22:41;100170;;;4.3;92
51195;BME280;37259;49.972;19.850;2023-02-12T03:23:41;100170;;;4.3;92
51195;BME280;37259;49.972;19.850;2023-02-12T03:24:42;100170;;;4.3;91.9
51195;BME280;37259;49.972;19.850;2023-02-12T03:25:43;100170;;;4.3;91.9
51195;BME280;37259;49.972;19.850;2023-02-12T03:26:42;100170;;;4.3;91.9
51195;BME280;37259;49.972;19.850;2023-02-12T03:27:41;100180;;;4.3;91.9
51195;BME280;37259;49.972;19.850;2023-02-12T03:28:41;100180;;;4.3;91.8
51195;BME280;37259;49.972;19.850;2023-02-12T03:29:41;100180;;;4.3;91.8
51195;BME280;37259;49.972;19.850;2023-02-12T03:30:41;100190;;;4.2;91.8
51195;BME280;37259;49.972;19.850;2023-02-12T03:31:44;100190;;;4.2;91.8
51195;BME280;37259;49.972;19.850;2023-02-12T03:32:43;100190;;;4.2;91.8
51195;BME280;37259;49.972;19.850;2023-02-12T03:33:43;100180;;;4.3;91.8
51195;BME280;37259;49.972;19.850;2023-02-12T03:34:44;100180;;;4.3;91.8
51195;BME280;37259;49.972;19.850;2023-02-12T03:35:41;100180;;;4.3;91.8
51195;BME280;37259;49.972;19.850;2023-02-12T03:36:42;100180;;;4.3;91.8
51195;BME280;37259;49.972;19.850;2023-02-12T03:37:42;100180;;;4.3;91.8
51195;BME280;37259;49.972;19.850;2023-02-12T03:38:42;100180;;;4.3;91.8
51195;BME280;37259;49.972;19.850;2023-02-12T03:39:43;100190;;;4.3;91.8
51195;BME280;37259;49.972;19.850;2023-02-12T03:40:41;100190;;;4.3;91.8
51195;BME280;37259;49.972;19.850;2023-02-12T03:41:41;100200;;;4.3;91.7
51195;BME280;37259;49.972;19.850;2023-02-12T03:42:42;100200;;;4.3;91.7
51195;BME280;37259;49.972;19.850;2023-02-12T03:43:42;100200;;;4.3;91.7
51195;BME280;37259;49.972;19.850;2023-02-12T03:44:44;100210;;;4.3;91.7
51195;BME280;37259;49.972;19.850;2023-02-12T03:45:42;100210;;;4.3;91.7
51195;BME280;37259;49.972;19.850;2023-02-12T03:46:41;100210;;;4.3;91.7
51195;BME280;37259;49.972;19.850;2023-02-12T03:47:43;100200;;;4.3;91.7
51195;BME280;37259;49.972;19.850;2023-02-12T03:48:41;100200;;;4.3;91.7
51195;BME280;37259;49.972;19.850;2023-02-12T03:49:43;100200;;;4.2;91.6
51195;BME280;37259;49.972;19.850;2023-02-12T03:50:50;100210;;;4.2;91.6
51195;BME280;37259;49.972;19.850;2023-02-12T03:51:41;100210;;;4.2;91.6
51195;BME280;37259;49.972;19.850;2023-02-12T03:52:40;100210;;;4.2;91.6
51195;BME280;37259;49.972;19.850;2023-02-12T03:53:41;100210;;;4.2;91.6
51195;BME280;37259;49.972;19.850;2023-02-12T03:54:40;100220;;;4.3;91.6
51195;BME280;37259;49.972;19.850;2023-02-12T03:55:41;100220;;;4.2;91.6
51195;BME280;37259;49.972;19.850;2023-02-12T03:56:41;100220;;;4.2;91.6
51195;BME280;37259;49.972;19.850;2023-02-12T03:57:41;100220;;;4.2;91.6
51195;BME280;37259;49.972;19.850;2023-02-12T03:58:40;100220;;;4.2;91.6
51195;BME280;37259;49.972;19.850;2023-02-12T03:59:41;100220;;;4.2;91.6
51195;BME280;37259;49.972;19.850;2023-02-12T04:00:41;100230;;;4.2;91.6
51195;BME280;37259;49.972;19.850;2023-02-12T04:01:41;100230;;;4.2;91.6
51195;BME280;37259;49.972;19.850;2023-02-12T04:02:40;100230;;;4.2;91.5
51195;BME280;37259;49.972;19.850;2023-02-12T04:03:40;100230;;;4.2;91.5
51195;BME280;37259;49.972;19.850;2023-02-12T04:04:41;100230;;;4.2;91.5
51195;BME280;37259;49.972;19.850;2023-02-12T04:05:40;100240;;;4.2;91.5
51195;BME280;37259;49.972;19.850;2023-02-12T04:06:41;100240;;;4.2;91.5
51195;BME280;37259;49.972;19.850;2023-02-12T04:07:41;100240;;;4.2;91.5
51195;BME280;37259;49.972;19.850;2023-02-12T04:08:41;100230;;;4.2;91.4
51195;BME280;37259;49.972;19.850;2023-02-12T04:09:40;100230;;;4.2;91.4
51195;BME280;37259;49.972;19.850;2023-02-12T04:10:43;100240;;;4.2;91.4
51195;BME280;37259;49.972;19.850;2023-02-12T04:11:44;100240;;;4.2;91.4
51195;BME280;37259;49.972;19.850;2023-02-12T04:13:41;100250;;;4.2;91.4
51195;BME280;37259;49.972;19.850;2023-02-12T04:14:43;100250;;;4.2;91.4
51195;BME280;37259;49.972;19.850;2023-02-12T04:15:45;100250;;;4.2;91.4
51195;BME280;37259;49.972;19.850;2023-02-12T04:16:42;100250;;;4.2;91.4
51195;BME280;37259;49.972;19.850;2023-02-12T04:17:43;100260;;;4.3;91.4
51195;BME280;37259;49.972;19.850;2023-02-12T04:18:41;100260;;;4.3;91.4
51195;BME280;37259;49.972;19.850;2023-02-12T04:19:44;100260;;;4.3;91.4
51195;BME280;37259;49.972;19.850;2023-02-12T04:20:44;100260;;;4.3;91.4
51195;BME280;37259;49.972;19.850;2023-02-12T04:21:43;100260;;;4.3;91.4
51195;BME280;37259;49.972;19.850;2023-02-12T04:22:44;100260;;;4.3;91.4
51195;BME280;37259;49.972;19.850;2023-02-12T04:23:43;100270;;;4.3;91.3
51195;BME280;37259;49.972;19.850;2023-02-12T04:24:43;100270;;;4.2;91.3
51195;BME280;37259;49.972;19.850;2023-02-12T04:25:42;100270;;;4.2;91.3
51195;BME280;37259;49.972;19.850;2023-02-12T04:26:41;100270;;;4.3;91.3
51195;BME280;37259;49.972;19.850;2023-02-12T04:27:41;100270;;;4.3;91.3
51195;BME280;37259;49.972;19.850;2023-02-12T04:28:42;100270;;;4.3;91.3
51195;BME280;37259;49.972;19.850;2023-02-12T04:29:42;100270;;;4.3;91.3
51195;BME280;37259;49.972;19.850;2023-02-12T04:30:41;100260;;;4.3;91.3
51195;BME280;37259;49.972;19.850;2023-02-12T04:31:42;100260;;;4.3;91.3
51195;BME280;37259;49.972;19.850;2023-02-12T04:32:42;100260;;;4.3;91.3
51195;BME280;37259;49.972;19.850;2023-02-12T04:33:41;100260;;;4.3;91.2
51195;BME280;37259;49.972;19.850;2023-02-12T04:34:42;100260;;;4.2;91.2
51195;BME280;37259;49.972;19.850;2023-02-12T04:35:43;100260;;;4.2;91.2
51195;BME280;37259;49.972;19.850;2023-02-12T04:36:44;100270;;;4.2;91.1
51195;BME280;37259;49.972;19.850;2023-02-12T04:37:41;100270;;;4.2;91.1
51195;BME280;37259;49.972;19.850;2023-02-12T04:38:42;100270;;;4.2;91.1
51195;BME280;37259;49.972;19.850;2023-02-12T04:39:41;100270;;;4.3;91.1
51195;BME280;37259;49.972;19.850;2023-02-12T04:40:41;100270;;;4.3;91.1
51195;BME280;37259;49.972;19.850;2023-02-12T04:41:40;100270;;;4.3;91.1
51195;BME280;37259;49.972;19.850;2023-02-12T04:42:41;100280;;;4.3;91
51195;BME280;37259;49.972;19.850;2023-02-12T04:43:40;100280;;;4.3;91
51195;BME280;37259;49.972;19.850;2023-02-12T04:44:41;100280;;;4.3;91
51195;BME280;37259;49.972;19.850;2023-02-12T04:45:40;100290;;;4.3;91
51195;BME280;37259;49.972;19.850;2023-02-12T04:46:40;100290;;;4.3;91
51195;BME280;37259;49.972;19.850;2023-02-12T04:47:40;100300;;;4.3;91
51195;BME280;37259;49.972;19.850;2023-02-12T04:48:45;100300;;;4.3;90.9
51195;BME280;37259;49.972;19.850;2023-02-12T04:49:40;100300;;;4.3;90.9
51195;BME280;37259;49.972;19.850;2023-02-12T04:50:41;100300;;;4.3;90.9
51195;BME280;37259;49.972;19.850;2023-02-12T04:51:40;100300;;;4.3;90.9
51195;BME280;37259;49.972;19.850;2023-02-12T04:52:40;100300;;;4.3;90.9
51195;BME280;37259;49.972;19.850;2023-02-12T04:53:40;100300;;;4.3;90.8
51195;BME280;37259;49.972;19.850;2023-02-12T04:54:40;100300;;;4.3;90.8
51195;BME280;37259;49.972;19.850;2023-02-12T04:55:40;100300;;;4.3;90.8
51195;BME280;37259;49.972;19.850;2023-02-12T04:56:41;100310;;;4.3;90.7
51195;BME280;37259;49.972;19.850;2023-02-12T04:57:40;100310;;;4.3;90.7
51195;BME280;37259;49.972;19.850;2023-02-12T04:58:40;100310;;;4.3;90.7
51195;BME280;37259;49.972;19.850;2023-02-12T04:59:41;100310;;;4.3;90.7
51195;BME280;37259;49.972;19.850;2023-02-12T05:00:40;100310;;;4.3;90.7
51195;BME280;37259;49.972;19.850;2023-02-12T05:01:41;100310;;;4.3;90.6
51195;BME280;37259;49.972;19.850;2023-02-12T05:02:40;100320;;;4.3;90.6
51195;BME280;37259;49.972;19.850;2023-02-12T05:03:40;100320;;;4.3;90.6
51195;BME280;37259;49.972;19.850;2023-02-12T05:04:40;100330;;;4.3;90.6
51195;BME280;37259;49.972;19.850;2023-02-12T05:05:40;100330;;;4.3;90.6
51195;BME280;37259;49.972;19.850;2023-02-12T05:06:41;100340;;;4.3;90.6
51195;BME280;37259;49.972;19.850;2023-02-12T05:07:40;100340;;;4.3;90.6
51195;BME280;37259;49.972;19.850;2023-02-12T05:08:40;100340;;;4.3;90.5
51195;BME280;37259;49.972;19.850;2023-02-12T05:09:41;100340;;;4.3;90.4
51195;BME280;37259;49.972;19.850;2023-02-12T05:10:40;100340;;;4.3;90.4
51195;BME280;37259;49.972;19.850;2023-02-12T05:11:41;100340;;;4.3;90.4
51195;BME280;37259;49.972;19.850;2023-02-12T05:12:40;100340;;;4.3;90.4
51195;BME280;37259;49.972;19.850;2023-02-12T05:13:40;100350;;;4.3;90.4
51195;BME280;37259;49.972;19.850;2023-02-12T05:14:41;100350;;;4.3;90.4
51195;BME280;37259;49.972;19.850;2023-02-12T05:15:40;100350;;;4.2;90.4
51195;BME280;37259;49.972;19.850;2023-02-12T05:16:40;100350;;;4.2;90.4
51195;BME280;37259;49.972;19.850;2023-02-12T05:17:40;100360;;;4.2;90.4
51195;BME280;37259;49.972;19.850;2023-02-12T05:18:40;100360;;;4.2;90.4
51195;BME280;37259;49.972;19.850;2023-02-12T05:19:40;100360;;;4.2;90.4
51195;BME280;37259;49.972;19.850;2023-02-12T05:20:40;100360;;;4.2;90.4
51195;BME280;37259;49.972;19.850;2023-02-12T05:21:40;100360;;;4.2;90.4
51195;BME280;37259;49.972;19.850;2023-02-12T05:22:40;100360;;;4.2;90.4
51195;BME280;37259;49.972;19.850;2023-02-12T05:23:40;100360;;;4.2;90.4
51195;BME280;37259;49.972;19.850;2023-02-12T05:24:41;100360;;;4.2;90.4
51195;BME280;37259;49.972;19.850;2023-02-12T05:25:40;100360;;;4.2;90.4
51195;BME280;37259;49.972;19.850;2023-02-12T05:26:40;100370;;;4.1;90.4
51195;BME280;37259;49.972;19.850;2023-02-12T05:27:40;100370;;;4.1;90.4
51195;BME280;37259;49.972;19.850;2023-02-12T05:28:40;100360;;;4.1;90.5
51195;BME280;37259;49.972;19.850;2023-02-12T05:29:40;100360;;;4.1;90.5
51195;BME280;37259;49.972;19.850;2023-02-12T05:30:40;100360;;;4.1;90.5
51195;BME280;37259;49.972;19.850;2023-02-12T05:31:40;100370;;;4.1;90.5
51195;BME280;37259;49.972;19.850;2023-02-12T05:32:41;100370;;;4.1;90.5
51195;BME280;37259;49.972;19.850;2023-02-12T05:33:41;100370;;;4.1;90.5
51195;BME280;37259;49.972;19.850;2023-02-12T05:34:40;100380;;;4.2;90.5
51195;BME280;37259;49.972;19.850;2023-02-12T05:35:40;100380;;;4.2;90.5
51195;BME280;37259;49.972;19.850;2023-02-12T05:36:40;100380;;;4.2;90.4
51195;BME280;37259;49.972;19.850;2023-02-12T05:37:40;100380;;;4.2;90.4
51195;BME280;37259;49.972;19.850;2023-02-12T05:38:40;100390;;;4.2;90.5
51195;BME280;37259;49.972;19.850;2023-02-12T05:39:40;100390;;;4.2;90.5
51195;BME280;37259;49.972;19.850;2023-02-12T05:40:40;100390;;;4.2;90.5
51195;BME280;37259;49.972;19.850;2023-02-12T05:41:40;100390;;;4.2;90.4